sensor_id;sensor_type;location;lat;lon;timestamp;P1;durP1;ratioP1;P2;durP2;ratioP2
74867;SDS011;63419;42.262;12.210;2022-11-15T00:02:05;5.00;;;2.30;;
74867;SDS011;63419;42.262;12.210;2022-11-15T00:04:33;4.00;;;0.90;;
74867;SDS011;63419;42.262;12.210;2022-11-15T00:07:04;3.92;;;0.93;;
74867;SDS011;63419;42.262;12.210;2022-11-15T00:11:59;3.97;;;0.90;;
74867;SDS011;63419;42.262;12.210;2022-11-15T00:14:35;5.28;;;1.20;;
74867;SDS011;63419;42.262;12.210;2022-11-15T00:17:02;5.55;;;2.70;;
74867;SDS011;63419;42.262;12.210;2022-11-15T00:19:29;4.15;;;1.30;;
74867;SDS011;63419;42.262;12.210;2022-11-15T00:21:59;5.15;;;1.30;;
74867;SDS011;63419;42.262;12.210;2022-11-15T00:24:27;4.00;;;1.17;;
74867;SDS011;63419;42.262;12.210;2022-11-15T00:26:57;3.83;;;1.00;;
74867;SDS011;63419;42.262;12.210;2022-11-15T00:29:24;3.50;;;0.88;;
74867;SDS011;63419;42.262;12.210;2022-11-15T00:31:53;7.40;;;3.35;;
74867;SDS011;63419;42.262;12.210;2022-11-15T00:34:24;11.45;;;6.40;;
74867;SDS011;63419;42.262;12.210;2022-11-15T00:36:54;3.63;;;0.85;;
74867;SDS011;63419;42.262;12.210;2022-11-15T00:39:29;3.58;;;0.90;;
74867;SDS011;63419;42.262;12.210;2022-11-15T00:41:56;4.68;;;0.98;;
74867;SDS011;63419;42.262;12.210;2022-11-15T00:44:26;4.15;;;1.20;;
74867;SDS011;63419;42.262;12.210;2022-11-15T00:46:57;4.50;;;1.10;;
74867;SDS011;63419;42.262;12.210;2022-11-15T00:49:30;4.25;;;1.33;;
74867;SDS011;63419;42.262;12.210;2022-11-15T00:51:57;4.78;;;1.35;;
74867;SDS011;63419;42.262;12.210;2022-11-15T00:54:24;9.95;;;1.83;;
74867;SDS011;63419;42.262;12.210;2022-11-15T00:56:55;11.18;;;1.55;;
74867;SDS011;63419;42.262;12.210;2022-11-15T00:59:23;6.80;;;2.05;;
74867;SDS011;63419;42.262;12.210;2022-11-15T01:01:53;4.82;;;1.13;;
74867;SDS011;63419;42.262;12.210;2022-11-15T01:06:50;5.70;;;1.10;;
74867;SDS011;63419;42.262;12.210;2022-11-15T01:09:21;4.00;;;1.02;;
74867;SDS011;63419;42.262;12.210;2022-11-15T01:11:54;4.88;;;1.10;;
74867;SDS011;63419;42.262;12.210;2022-11-15T01:14:24;4.60;;;1.20;;
74867;SDS011;63419;42.262;12.210;2022-11-15T01:16:53;3.20;;;0.70;;
74867;SDS011;63419;42.262;12.210;2022-11-15T01:19:22;4.43;;;0.90;;
74867;SDS011;63419;42.262;12.210;2022-11-15T01:21:49;3.33;;;0.65;;
74867;SDS011;63419;42.262;12.210;2022-11-15T01:24:17;4.00;;;0.80;;
74867;SDS011;63419;42.262;12.210;2022-11-15T01:26:47;4.28;;;1.08;;
74867;SDS011;63419;42.262;12.210;2022-11-15T01:29:23;3.83;;;1.02;;
74867;SDS011;63419;42.262;12.210;2022-11-15T01:31:53;3.70;;;1.20;;
74867;SDS011;63419;42.262;12.210;2022-11-15T01:34:21;3.85;;;0.90;;
74867;SDS011;63419;42.262;12.210;2022-11-15T01:36:52;5.15;;;1.30;;
74867;SDS011;63419;42.262;12.210;2022-11-15T01:39:21;5.85;;;1.00;;
74867;SDS011;63419;42.262;12.210;2022-11-15T01:41:49;4.72;;;1.40;;
74867;SDS011;63419;42.262;12.210;2022-11-15T01:47:36;5.38;;;1.42;;
74867;SDS011;63419;42.262;12.210;2022-11-15T01:50:15;5.53;;;1.50;;
74867;SDS011;63419;42.262;12.210;2022-11-15T01:53:00;4.85;;;1.50;;
74867;SDS011;63419;42.262;12.210;2022-11-15T01:55:34;6.45;;;1.70;;
74867;SDS011;63419;42.262;12.210;2022-11-15T01:58:03;6.47;;;2.00;;
74867;SDS011;63419;42.262;12.210;2022-11-15T02:00:33;4.75;;;1.70;;
74867;SDS011;63419;42.262;12.210;2022-11-15T02:03:03;4.93;;;1.67;;
74867;SDS011;63419;42.262;12.210;2022-11-15T02:05:42;5.03;;;1.30;;
74867;SDS011;63419;42.262;12.210;2022-11-15T02:08:10;5.72;;;1.67;;
74867;SDS011;63419;42.262;12.210;2022-11-15T02:10:46;4.55;;;1.38;;
74867;SDS011;63419;42.262;12.210;2022-11-15T02:13:16;4.70;;;1.58;;
74867;SDS011;63419;42.262;12.210;2022-11-15T02:22:13;5.28;;;1.50;;
74867;SDS011;63419;42.262;12.210;2022-11-15T02:42:54;4.78;;;1.02;;
74867;SDS011;63419;42.262;12.210;2022-11-15T02:45:52;3.88;;;1.20;;
74867;SDS011;63419;42.262;12.210;2022-11-15T02:48:46;3.22;;;0.90;;
74867;SDS011;63419;42.262;12.210;2022-11-15T02:51:21;4.93;;;0.95;;
74867;SDS011;63419;42.262;12.210;2022-11-15T02:53:55;4.30;;;1.15;;
74867;SDS011;63419;42.262;12.210;2022-11-15T02:59:01;3.78;;;1.05;;
74867;SDS011;63419;42.262;12.210;2022-11-15T03:02:02;3.88;;;1.00;;
74867;SDS011;63419;42.262;12.210;2022-11-15T03:05:19;3.28;;;0.73;;
74867;SDS011;63419;42.262;12.210;2022-11-15T03:08:14;3.80;;;1.15;;
74867;SDS011;63419;42.262;12.210;2022-11-15T03:11:17;4.15;;;1.10;;
74867;SDS011;63419;42.262;12.210;2022-11-15T03:19:46;4.43;;;1.00;;
74867;SDS011;63419;42.262;12.210;2022-11-15T03:22:30;3.75;;;0.90;;
74867;SDS011;63419;42.262;12.210;2022-11-15T03:25:06;3.90;;;1.13;;
74867;SDS011;63419;42.262;12.210;2022-11-15T03:27:39;5.30;;;1.38;;
74867;SDS011;63419;42.262;12.210;2022-11-15T03:30:14;4.15;;;1.08;;
74867;SDS011;63419;42.262;12.210;2022-11-15T03:32:52;4.82;;;1.40;;
74867;SDS011;63419;42.262;12.210;2022-11-15T03:35:29;4.78;;;1.38;;
74867;SDS011;63419;42.262;12.210;2022-11-15T03:43:42;7.18;;;1.60;;
74867;SDS011;63419;42.262;12.210;2022-11-15T03:46:32;4.43;;;1.33;;
74867;SDS011;63419;42.262;12.210;2022-11-15T03:49:24;4.03;;;1.10;;
74867;SDS011;63419;42.262;12.210;2022-11-15T03:52:07;5.00;;;1.60;;
74867;SDS011;63419;42.262;12.210;2022-11-15T03:54:53;4.50;;;1.42;;
74867;SDS011;63419;42.262;12.210;2022-11-15T03:57:24;4.90;;;1.48;;
74867;SDS011;63419;42.262;12.210;2022-11-15T03:59:52;4.10;;;1.40;;
74867;SDS011;63419;42.262;12.210;2022-11-15T04:02:22;5.57;;;1.52;;
74867;SDS011;63419;42.262;12.210;2022-11-15T04:04:50;4.60;;;1.40;;
74867;SDS011;63419;42.262;12.210;2022-11-15T04:07:20;4.25;;;1.48;;
74867;SDS011;63419;42.262;12.210;2022-11-15T04:09:50;4.68;;;1.40;;
74867;SDS011;63419;42.262;12.210;2022-11-15T04:12:35;4.25;;;1.20;;
74867;SDS011;63419;42.262;12.210;2022-11-15T04:15:11;5.15;;;1.30;;
74867;SDS011;63419;42.262;12.210;2022-11-15T04:17:53;4.47;;;1.20;;
74867;SDS011;63419;42.262;12.210;2022-11-15T04:20:33;5.20;;;1.23;;
74867;SDS011;63419;42.262;12.210;2022-11-15T04:23:20;4.90;;;1.48;;
74867;SDS011;63419;42.262;12.210;2022-11-15T04:26:11;5.70;;;1.40;;
74867;SDS011;63419;42.262;12.210;2022-11-15T04:28:44;4.82;;;1.40;;
74867;SDS011;63419;42.262;12.210;2022-11-15T04:31:34;5.00;;;1.55;;
74867;SDS011;63419;42.262;12.210;2022-11-15T04:34:03;5.32;;;1.65;;
74867;SDS011;63419;42.262;12.210;2022-11-15T04:36:34;4.82;;;1.52;;
74867;SDS011;63419;42.262;12.210;2022-11-15T04:39:20;4.97;;;1.73;;
74867;SDS011;63419;42.262;12.210;2022-11-15T04:41:48;4.60;;;1.48;;
74867;SDS011;63419;42.262;12.210;2022-11-15T04:46:43;4.18;;;1.20;;
74867;SDS011;63419;42.262;12.210;2022-11-15T04:49:13;4.00;;;1.30;;
74867;SDS011;63419;42.262;12.210;2022-11-15T04:51:46;4.38;;;1.30;;
74867;SDS011;63419;42.262;12.210;2022-11-15T04:54:16;4.78;;;1.20;;
74867;SDS011;63419;42.262;12.210;2022-11-15T04:59:22;4.97;;;1.50;;
74867;SDS011;63419;42.262;12.210;2022-11-15T05:01:52;4.53;;;1.38;;
74867;SDS011;63419;42.262;12.210;2022-11-15T05:04:19;5.82;;;1.60;;
74867;SDS011;63419;42.262;12.210;2022-11-15T05:06:49;5.82;;;1.58;;
74867;SDS011;63419;42.262;12.210;2022-11-15T05:09:18;4.75;;;1.63;;
74867;SDS011;63419;42.262;12.210;2022-11-15T05:11:51;4.95;;;1.55;;
74867;SDS011;63419;42.262;12.210;2022-11-15T05:14:20;6.03;;;1.83;;
74867;SDS011;63419;42.262;12.210;2022-11-15T05:16:51;6.32;;;2.08;;
74867;SDS011;63419;42.262;12.210;2022-11-15T05:19:24;5.30;;;1.67;;
74867;SDS011;63419;42.262;12.210;2022-11-15T05:21:55;5.80;;;2.03;;
74867;SDS011;63419;42.262;12.210;2022-11-15T05:24:31;4.85;;;1.48;;
74867;SDS011;63419;42.262;12.210;2022-11-15T05:27:00;5.90;;;2.13;;
74867;SDS011;63419;42.262;12.210;2022-11-15T05:29:31;6.85;;;2.08;;
74867;SDS011;63419;42.262;12.210;2022-11-15T05:32:00;6.43;;;2.33;;
74867;SDS011;63419;42.262;12.210;2022-11-15T05:34:31;5.72;;;2.00;;
74867;SDS011;63419;42.262;12.210;2022-11-15T05:37:02;5.78;;;2.08;;
74867;SDS011;63419;42.262;12.210;2022-11-15T05:39:35;5.30;;;2.05;;
74867;SDS011;63419;42.262;12.210;2022-11-15T05:42:05;5.53;;;2.38;;
74867;SDS011;63419;42.262;12.210;2022-11-15T05:44:40;8.15;;;2.13;;
74867;SDS011;63419;42.262;12.210;2022-11-15T05:47:15;9.02;;;2.28;;
74867;SDS011;63419;42.262;12.210;2022-11-15T05:49:50;5.40;;;1.63;;
74867;SDS011;63419;42.262;12.210;2022-11-15T05:52:24;5.18;;;1.88;;
74867;SDS011;63419;42.262;12.210;2022-11-15T05:55:05;5.10;;;1.80;;
74867;SDS011;63419;42.262;12.210;2022-11-15T05:57:40;7.60;;;1.73;;
74867;SDS011;63419;42.262;12.210;2022-11-15T06:02:39;25.13;;;9.73;;
74867;SDS011;63419;42.262;12.210;2022-11-15T06:05:08;35.15;;;16.05;;
74867;SDS011;63419;42.262;12.210;2022-11-15T06:07:38;28.98;;;10.88;;
74867;SDS011;63419;42.262;12.210;2022-11-15T06:10:10;20.73;;;8.98;;
74867;SDS011;63419;42.262;12.210;2022-11-15T06:12:39;13.93;;;5.70;;
74867;SDS011;63419;42.262;12.210;2022-11-15T06:15:08;11.13;;;5.15;;
74867;SDS011;63419;42.262;12.210;2022-11-15T06:17:36;10.70;;;3.67;;
74867;SDS011;63419;42.262;12.210;2022-11-15T06:22:33;7.43;;;2.63;;
74867;SDS011;63419;42.262;12.210;2022-11-15T06:25:07;8.73;;;2.47;;
74867;SDS011;63419;42.262;12.210;2022-11-15T06:27:34;6.93;;;2.50;;
74867;SDS011;63419;42.262;12.210;2022-11-15T06:30:05;7.18;;;2.95;;
74867;SDS011;63419;42.262;12.210;2022-11-15T06:32:37;8.63;;;2.95;;
74867;SDS011;63419;42.262;12.210;2022-11-15T06:35:05;8.65;;;3.55;;
74867;SDS011;63419;42.262;12.210;2022-11-15T06:37:39;7.25;;;3.22;;
74867;SDS011;63419;42.262;12.210;2022-11-15T06:40:10;7.03;;;3.03;;
74867;SDS011;63419;42.262;12.210;2022-11-15T06:42:40;7.20;;;3.60;;
74867;SDS011;63419;42.262;12.210;2022-11-15T06:45:18;7.15;;;3.10;;
74867;SDS011;63419;42.262;12.210;2022-11-15T06:47:46;7.20;;;3.17;;
74867;SDS011;63419;42.262;12.210;2022-11-15T06:50:15;6.88;;;3.17;;
74867;SDS011;63419;42.262;12.210;2022-11-15T06:52:46;7.18;;;2.92;;
74867;SDS011;63419;42.262;12.210;2022-11-15T06:55:16;8.77;;;3.88;;
74867;SDS011;63419;42.262;12.210;2022-11-15T06:57:51;7.57;;;2.88;;
74867;SDS011;63419;42.262;12.210;2022-11-15T07:00:19;8.98;;;3.15;;
74867;SDS011;63419;42.262;12.210;2022-11-15T07:02:53;9.75;;;2.75;;
74867;SDS011;63419;42.262;12.210;2022-11-15T07:05:21;7.72;;;3.08;;
74867;SDS011;63419;42.262;12.210;2022-11-15T07:07:52;6.90;;;2.65;;
74867;SDS011;63419;42.262;12.210;2022-11-15T07:10:25;8.05;;;2.88;;
74867;SDS011;63419;42.262;12.210;2022-11-15T07:12:55;8.13;;;3.10;;
74867;SDS011;63419;42.262;12.210;2022-11-15T07:15:24;7.50;;;2.90;;
74867;SDS011;63419;42.262;12.210;2022-11-15T07:17:52;7.10;;;2.97;;
74867;SDS011;63419;42.262;12.210;2022-11-15T07:22:47;6.57;;;2.28;;
74867;SDS011;63419;42.262;12.210;2022-11-15T07:25:15;6.55;;;2.28;;
74867;SDS011;63419;42.262;12.210;2022-11-15T07:27:58;6.90;;;2.20;;
74867;SDS011;63419;42.262;12.210;2022-11-15T07:30:29;5.70;;;2.25;;
74867;SDS011;63419;42.262;12.210;2022-11-15T07:33:11;4.90;;;1.88;;
74867;SDS011;63419;42.262;12.210;2022-11-15T07:35:50;7.63;;;2.00;;
74867;SDS011;63419;42.262;12.210;2022-11-15T07:38:17;5.85;;;2.00;;
74867;SDS011;63419;42.262;12.210;2022-11-15T07:40:54;5.55;;;1.55;;
74867;SDS011;63419;42.262;12.210;2022-11-15T07:43:28;5.53;;;2.10;;
74867;SDS011;63419;42.262;12.210;2022-11-15T07:46:06;6.85;;;2.88;;
74867;SDS011;63419;42.262;12.210;2022-11-15T07:51:14;10.27;;;4.65;;
74867;SDS011;63419;42.262;12.210;2022-11-15T07:53:43;15.93;;;6.65;;
74867;SDS011;63419;42.262;12.210;2022-11-15T07:56:11;11.43;;;5.40;;
74867;SDS011;63419;42.262;12.210;2022-11-15T07:58:40;11.32;;;4.93;;
74867;SDS011;63419;42.262;12.210;2022-11-15T08:03:39;10.05;;;3.83;;
74867;SDS011;63419;42.262;12.210;2022-11-15T08:06:07;10.07;;;3.80;;
74867;SDS011;63419;42.262;12.210;2022-11-15T08:08:35;8.43;;;4.10;;
74867;SDS011;63419;42.262;12.210;2022-11-15T08:11:05;9.25;;;3.72;;
74867;SDS011;63419;42.262;12.210;2022-11-15T08:13:40;8.32;;;4.80;;
74867;SDS011;63419;42.262;12.210;2022-11-15T08:16:09;10.55;;;3.28;;
74867;SDS011;63419;42.262;12.210;2022-11-15T08:21:14;6.20;;;2.55;;
74867;SDS011;63419;42.262;12.210;2022-11-15T08:23:53;7.32;;;2.50;;
74867;SDS011;63419;42.262;12.210;2022-11-15T08:26:26;4.75;;;1.65;;
74867;SDS011;63419;42.262;12.210;2022-11-15T08:28:56;8.32;;;2.63;;
74867;SDS011;63419;42.262;12.210;2022-11-15T08:31:25;7.72;;;3.00;;
74867;SDS011;63419;42.262;12.210;2022-11-15T08:33:53;12.77;;;4.05;;
74867;SDS011;63419;42.262;12.210;2022-11-15T08:36:20;12.63;;;4.50;;
74867;SDS011;63419;42.262;12.210;2022-11-15T08:39:11;9.82;;;3.55;;
74867;SDS011;63419;42.262;12.210;2022-11-15T08:41:43;10.15;;;3.75;;
74867;SDS011;63419;42.262;12.210;2022-11-15T08:44:13;8.02;;;3.63;;
74867;SDS011;63419;42.262;12.210;2022-11-15T08:46:46;9.73;;;3.38;;
74867;SDS011;63419;42.262;12.210;2022-11-15T08:49:16;11.32;;;4.10;;
74867;SDS011;63419;42.262;12.210;2022-11-15T08:51:44;7.88;;;3.65;;
74867;SDS011;63419;42.262;12.210;2022-11-15T08:54:12;6.55;;;3.17;;
74867;SDS011;63419;42.262;12.210;2022-11-15T08:56:39;8.68;;;2.80;;
74867;SDS011;63419;42.262;12.210;2022-11-15T08:59:11;7.25;;;2.83;;
74867;SDS011;63419;42.262;12.210;2022-11-15T09:01:39;7.97;;;2.63;;
74867;SDS011;63419;42.262;12.210;2022-11-15T09:04:09;5.82;;;2.30;;
74867;SDS011;63419;42.262;12.210;2022-11-15T09:06:41;5.53;;;1.80;;
74867;SDS011;63419;42.262;12.210;2022-11-15T09:09:22;5.70;;;1.70;;
74867;SDS011;63419;42.262;12.210;2022-11-15T09:14:23;4.55;;;1.50;;
74867;SDS011;63419;42.262;12.210;2022-11-15T09:16:50;5.03;;;1.63;;
74867;SDS011;63419;42.262;12.210;2022-11-15T09:19:17;5.40;;;1.92;;
74867;SDS011;63419;42.262;12.210;2022-11-15T09:21:46;4.63;;;1.70;;
74867;SDS011;63419;42.262;12.210;2022-11-15T09:24:17;5.28;;;1.58;;
74867;SDS011;63419;42.262;12.210;2022-11-15T09:26:45;4.60;;;1.92;;
74867;SDS011;63419;42.262;12.210;2022-11-15T09:29:22;4.65;;;1.42;;
74867;SDS011;63419;42.262;12.210;2022-11-15T09:31:51;5.75;;;2.08;;
74867;SDS011;63419;42.262;12.210;2022-11-15T09:34:21;5.72;;;1.73;;
74867;SDS011;63419;42.262;12.210;2022-11-15T09:36:51;4.60;;;1.70;;
74867;SDS011;63419;42.262;12.210;2022-11-15T09:39:19;4.82;;;1.60;;
74867;SDS011;63419;42.262;12.210;2022-11-15T09:45:20;5.63;;;1.52;;
74867;SDS011;63419;42.262;12.210;2022-11-15T09:57:16;6.68;;;1.70;;
74867;SDS011;63419;42.262;12.210;2022-11-15T10:03:16;6.15;;;2.00;;
74867;SDS011;63419;42.262;12.210;2022-11-15T10:06:04;7.63;;;2.75;;
74867;SDS011;63419;42.262;12.210;2022-11-15T10:11:50;5.30;;;1.83;;
74867;SDS011;63419;42.262;12.210;2022-11-15T10:14:19;5.57;;;1.95;;
74867;SDS011;63419;42.262;12.210;2022-11-15T10:20:20;5.53;;;1.63;;
74867;SDS011;63419;42.262;12.210;2022-11-15T10:23:06;6.63;;;1.98;;
74867;SDS011;63419;42.262;12.210;2022-11-15T10:25:42;6.18;;;1.92;;
74867;SDS011;63419;42.262;12.210;2022-11-15T10:28:16;7.72;;;2.08;;
74867;SDS011;63419;42.262;12.210;2022-11-15T10:31:01;7.85;;;2.78;;
74867;SDS011;63419;42.262;12.210;2022-11-15T10:33:35;6.02;;;2.25;;
74867;SDS011;63419;42.262;12.210;2022-11-15T10:41:32;9.77;;;3.30;;
74867;SDS011;63419;42.262;12.210;2022-11-15T10:44:24;8.52;;;3.03;;
74867;SDS011;63419;42.262;12.210;2022-11-15T10:50:27;10.50;;;3.08;;
74867;SDS011;63419;42.262;12.210;2022-11-15T10:52:58;5.43;;;2.33;;
74867;SDS011;63419;42.262;12.210;2022-11-15T10:55:30;6.57;;;2.70;;
74867;SDS011;63419;42.262;12.210;2022-11-15T10:58:18;7.25;;;2.78;;
74867;SDS011;63419;42.262;12.210;2022-11-15T11:06:55;5.30;;;2.20;;
74867;SDS011;63419;42.262;12.210;2022-11-15T11:09:36;5.47;;;2.30;;
74867;SDS011;63419;42.262;12.210;2022-11-15T11:12:12;6.35;;;2.40;;
74867;SDS011;63419;42.262;12.210;2022-11-15T11:14:43;5.22;;;2.30;;
74867;SDS011;63419;42.262;12.210;2022-11-15T11:20:19;5.80;;;2.42;;
74867;SDS011;63419;42.262;12.210;2022-11-15T11:29:11;8.35;;;3.15;;
74867;SDS011;63419;42.262;12.210;2022-11-15T11:35:41;7.53;;;3.30;;
74867;SDS011;63419;42.262;12.210;2022-11-15T11:38:37;9.80;;;4.47;;
74867;SDS011;63419;42.262;12.210;2022-11-15T11:41:44;7.68;;;3.15;;
74867;SDS011;63419;42.262;12.210;2022-11-15T11:47:44;8.45;;;3.78;;
74867;SDS011;63419;42.262;12.210;2022-11-15T11:50:23;7.68;;;3.00;;
74867;SDS011;63419;42.262;12.210;2022-11-15T11:53:03;7.90;;;3.20;;
74867;SDS011;63419;42.262;12.210;2022-11-15T11:56:15;9.13;;;3.70;;
74867;SDS011;63419;42.262;12.210;2022-11-15T12:01:43;10.68;;;3.75;;
74867;SDS011;63419;42.262;12.210;2022-11-15T12:04:33;8.65;;;3.63;;
74867;SDS011;63419;42.262;12.210;2022-11-15T12:07:29;8.07;;;3.35;;
74867;SDS011;63419;42.262;12.210;2022-11-15T12:10:19;9.60;;;4.60;;
74867;SDS011;63419;42.262;12.210;2022-11-15T12:12:58;9.55;;;3.47;;
74867;SDS011;63419;42.262;12.210;2022-11-15T12:15:51;9.57;;;3.25;;
74867;SDS011;63419;42.262;12.210;2022-11-15T12:18:34;13.75;;;3.83;;
74867;SDS011;63419;42.262;12.210;2022-11-15T12:21:50;10.48;;;4.03;;
74867;SDS011;63419;42.262;12.210;2022-11-15T12:24:14;9.48;;;4.57;;
74867;SDS011;63419;42.262;12.210;2022-11-15T12:30:21;10.65;;;4.43;;
74867;SDS011;63419;42.262;12.210;2022-11-15T12:32:58;8.98;;;4.10;;
74867;SDS011;63419;42.262;12.210;2022-11-15T12:35:38;9.63;;;4.75;;
74867;SDS011;63419;42.262;12.210;2022-11-15T12:38:12;11.02;;;5.22;;
74867;SDS011;63419;42.262;12.210;2022-11-15T12:41:37;11.32;;;5.25;;
74867;SDS011;63419;42.262;12.210;2022-11-15T12:44:22;10.38;;;5.25;;
74867;SDS011;63419;42.262;12.210;2022-11-15T12:47:01;10.27;;;4.53;;
74867;SDS011;63419;42.262;12.210;2022-11-15T12:49:52;10.43;;;4.75;;
74867;SDS011;63419;42.262;12.210;2022-11-15T12:52:28;9.80;;;4.57;;
74867;SDS011;63419;42.262;12.210;2022-11-15T12:54:58;11.68;;;5.18;;
74867;SDS011;63419;42.262;12.210;2022-11-15T12:57:36;10.57;;;4.60;;
74867;SDS011;63419;42.262;12.210;2022-11-15T13:03:17;8.85;;;4.00;;
74867;SDS011;63419;42.262;12.210;2022-11-15T13:05:55;19.50;;;4.22;;
74867;SDS011;63419;42.262;12.210;2022-11-15T13:08:35;8.95;;;4.22;;
74867;SDS011;63419;42.262;12.210;2022-11-15T13:28:18;8.27;;;4.20;;
74867;SDS011;63419;42.262;12.210;2022-11-15T13:31:37;12.25;;;5.55;;
74867;SDS011;63419;42.262;12.210;2022-11-15T13:34:19;10.10;;;5.38;;
74867;SDS011;63419;42.262;12.210;2022-11-15T13:39:49;14.43;;;5.82;;
74867;SDS011;63419;42.262;12.210;2022-11-15T13:42:21;18.27;;;8.52;;
74867;SDS011;63419;42.262;12.210;2022-11-15T13:44:56;10.65;;;5.72;;
74867;SDS011;63419;42.262;12.210;2022-11-15T13:47:32;11.60;;;5.07;;
74867;SDS011;63419;42.262;12.210;2022-11-15T13:50:12;13.38;;;5.65;;
74867;SDS011;63419;42.262;12.210;2022-11-15T13:52:49;11.77;;;5.40;;
74867;SDS011;63419;42.262;12.210;2022-11-15T13:55:20;15.70;;;6.53;;
74867;SDS011;63419;42.262;12.210;2022-11-15T13:57:53;14.18;;;6.28;;
74867;SDS011;63419;42.262;12.210;2022-11-15T14:00:40;11.63;;;5.90;;
74867;SDS011;63419;42.262;12.210;2022-11-15T14:03:25;10.95;;;5.07;;
74867;SDS011;63419;42.262;12.210;2022-11-15T14:06:16;14.40;;;6.13;;
74867;SDS011;63419;42.262;12.210;2022-11-15T14:11:50;14.93;;;6.60;;
74867;SDS011;63419;42.262;12.210;2022-11-15T14:14:26;12.55;;;6.18;;
74867;SDS011;63419;42.262;12.210;2022-11-15T14:17:00;16.65;;;7.30;;
74867;SDS011;63419;42.262;12.210;2022-11-15T14:25:20;17.40;;;8.30;;
74867;SDS011;63419;42.262;12.210;2022-11-15T14:31:01;11.43;;;4.93;;
74867;SDS011;63419;42.262;12.210;2022-11-15T14:33:39;11.13;;;5.70;;
74867;SDS011;63419;42.262;12.210;2022-11-15T14:36:18;14.05;;;6.78;;
74867;SDS011;63419;42.262;12.210;2022-11-15T14:38:49;10.45;;;5.22;;
74867;SDS011;63419;42.262;12.210;2022-11-15T14:43:51;12.18;;;5.95;;
74867;SDS011;63419;42.262;12.210;2022-11-15T14:46:19;9.73;;;4.97;;
74867;SDS011;63419;42.262;12.210;2022-11-15T14:48:46;10.43;;;4.32;;
74867;SDS011;63419;42.262;12.210;2022-11-15T14:51:15;11.23;;;4.75;;
74867;SDS011;63419;42.262;12.210;2022-11-15T14:53:46;10.45;;;5.50;;
74867;SDS011;63419;42.262;12.210;2022-11-15T14:56:19;11.35;;;5.18;;
74867;SDS011;63419;42.262;12.210;2022-11-15T14:58:54;10.48;;;5.50;;
74867;SDS011;63419;42.262;12.210;2022-11-15T15:01:32;14.48;;;5.93;;
74867;SDS011;63419;42.262;12.210;2022-11-15T15:04:01;14.90;;;7.00;;
74867;SDS011;63419;42.262;12.210;2022-11-15T15:06:35;12.50;;;5.63;;
74867;SDS011;63419;42.262;12.210;2022-11-15T15:09:04;12.23;;;5.97;;
74867;SDS011;63419;42.262;12.210;2022-11-15T15:11:32;13.93;;;6.38;;
74867;SDS011;63419;42.262;12.210;2022-11-15T15:13:59;12.95;;;5.78;;
74867;SDS011;63419;42.262;12.210;2022-11-15T15:16:34;13.20;;;6.47;;
74867;SDS011;63419;42.262;12.210;2022-11-15T15:19:03;15.15;;;6.65;;
74867;SDS011;63419;42.262;12.210;2022-11-15T15:21:34;15.23;;;6.32;;
74867;SDS011;63419;42.262;12.210;2022-11-15T15:24:05;13.52;;;5.93;;
74867;SDS011;63419;42.262;12.210;2022-11-15T15:26:35;15.23;;;6.97;;
74867;SDS011;63419;42.262;12.210;2022-11-15T15:29:05;13.93;;;7.05;;
74867;SDS011;63419;42.262;12.210;2022-11-15T15:31:39;15.50;;;7.13;;
74867;SDS011;63419;42.262;12.210;2022-11-15T15:36:42;27.55;;;9.35;;
74867;SDS011;63419;42.262;12.210;2022-11-15T15:39:09;24.55;;;10.25;;
74867;SDS011;63419;42.262;12.210;2022-11-15T15:41:45;15.73;;;6.70;;
74867;SDS011;63419;42.262;12.210;2022-11-15T15:44:23;20.25;;;9.10;;
74867;SDS011;63419;42.262;12.210;2022-11-15T15:46:50;14.18;;;7.85;;
74867;SDS011;63419;42.262;12.210;2022-11-15T15:49:19;17.20;;;7.55;;
74867;SDS011;63419;42.262;12.210;2022-11-15T15:51:49;15.10;;;7.45;;
74867;SDS011;63419;42.262;12.210;2022-11-15T15:54:17;16.63;;;7.97;;
74867;SDS011;63419;42.262;12.210;2022-11-15T15:56:49;13.90;;;8.65;;
74867;SDS011;63419;42.262;12.210;2022-11-15T15:59:23;17.17;;;9.10;;
74867;SDS011;63419;42.262;12.210;2022-11-15T16:04:20;17.05;;;9.63;;
74867;SDS011;63419;42.262;12.210;2022-11-15T16:06:48;19.60;;;9.98;;
74867;SDS011;63419;42.262;12.210;2022-11-15T16:09:21;24.50;;;11.63;;
74867;SDS011;63419;42.262;12.210;2022-11-15T16:12:22;18.17;;;10.30;;
74867;SDS011;63419;42.262;12.210;2022-11-15T16:14:57;21.42;;;11.07;;
74867;SDS011;63419;42.262;12.210;2022-11-15T16:17:27;24.55;;;12.40;;
74867;SDS011;63419;42.262;12.210;2022-11-15T16:20:05;18.88;;;10.93;;
74867;SDS011;63419;42.262;12.210;2022-11-15T16:23:03;23.40;;;12.48;;
74867;SDS011;63419;42.262;12.210;2022-11-15T16:28:25;21.48;;;12.82;;
74867;SDS011;63419;42.262;12.210;2022-11-15T16:31:10;19.55;;;10.93;;
74867;SDS011;63419;42.262;12.210;2022-11-15T16:33:39;20.15;;;11.02;;
74867;SDS011;63419;42.262;12.210;2022-11-15T16:36:18;20.45;;;12.23;;
74867;SDS011;63419;42.262;12.210;2022-11-15T16:38:56;19.83;;;10.23;;
74867;SDS011;63419;42.262;12.210;2022-11-15T16:41:26;20.15;;;11.20;;
74867;SDS011;63419;42.262;12.210;2022-11-15T16:46:29;20.70;;;12.10;;
74867;SDS011;63419;42.262;12.210;2022-11-15T16:48:56;23.80;;;12.70;;
74867;SDS011;63419;42.262;12.210;2022-11-15T16:51:24;26.50;;;13.38;;
74867;SDS011;63419;42.262;12.210;2022-11-15T16:54:00;25.35;;;12.07;;
74867;SDS011;63419;42.262;12.210;2022-11-15T16:56:29;22.40;;;12.10;;
74867;SDS011;63419;42.262;12.210;2022-11-15T16:59:01;24.13;;;14.27;;
74867;SDS011;63419;42.262;12.210;2022-11-15T17:01:35;28.05;;;14.30;;
74867;SDS011;63419;42.262;12.210;2022-11-15T17:04:23;25.30;;;13.88;;
74867;SDS011;63419;42.262;12.210;2022-11-15T17:07:03;28.98;;;14.93;;
74867;SDS011;63419;42.262;12.210;2022-11-15T17:09:36;23.13;;;11.98;;
74867;SDS011;63419;42.262;12.210;2022-11-15T17:14:34;40.15;;;17.85;;
74867;SDS011;63419;42.262;12.210;2022-11-15T17:17:02;30.88;;;15.60;;
74867;SDS011;63419;42.262;12.210;2022-11-15T17:19:38;24.63;;;12.88;;
74867;SDS011;63419;42.262;12.210;2022-11-15T17:22:08;28.23;;;14.35;;
74867;SDS011;63419;42.262;12.210;2022-11-15T17:24:36;24.50;;;13.13;;
74867;SDS011;63419;42.262;12.210;2022-11-15T17:29:37;26.42;;;13.30;;
74867;SDS011;63419;42.262;12.210;2022-11-15T17:32:10;25.23;;;15.02;;
74867;SDS011;63419;42.262;12.210;2022-11-15T17:34:41;25.40;;;13.10;;
74867;SDS011;63419;42.262;12.210;2022-11-15T17:37:09;25.60;;;12.60;;
74867;SDS011;63419;42.262;12.210;2022-11-15T17:39:38;25.90;;;14.15;;
74867;SDS011;63419;42.262;12.210;2022-11-15T17:42:13;27.75;;;13.98;;
74867;SDS011;63419;42.262;12.210;2022-11-15T17:44:41;34.08;;;15.43;;
74867;SDS011;63419;42.262;12.210;2022-11-15T17:47:09;26.98;;;15.07;;
74867;SDS011;63419;42.262;12.210;2022-11-15T17:49:37;23.80;;;12.48;;
74867;SDS011;63419;42.262;12.210;2022-11-15T17:52:07;26.00;;;12.70;;
74867;SDS011;63419;42.262;12.210;2022-11-15T17:54:37;26.45;;;13.13;;
74867;SDS011;63419;42.262;12.210;2022-11-15T17:57:11;30.00;;;16.95;;
74867;SDS011;63419;42.262;12.210;2022-11-15T17:59:44;22.55;;;12.55;;
74867;SDS011;63419;42.262;12.210;2022-11-15T18:02:11;23.55;;;11.70;;
74867;SDS011;63419;42.262;12.210;2022-11-15T18:04:41;23.50;;;13.18;;
74867;SDS011;63419;42.262;12.210;2022-11-15T18:07:10;25.50;;;13.32;;
74867;SDS011;63419;42.262;12.210;2022-11-15T18:09:39;22.92;;;11.45;;
74867;SDS011;63419;42.262;12.210;2022-11-15T18:12:14;23.63;;;11.73;;
74867;SDS011;63419;42.262;12.210;2022-11-15T18:14:44;26.05;;;14.40;;